MSC Kalina — 3ETW2 — position and weather

sailwx.info

Track history (hours):
 
Tides and Currents Weather Stations Pressure Air Temp Water Temp Dewpoint Dewpoint Depression Visibility Wind Speed Wind Dir Waves Ship Positions

MSC Kalina

Last reported at 2018-Feb-22 04:59 UTC. Time now 2018-Feb-22 05:29 UTC.
Position N 51°17' E 004°15'.

Length 366 m; draft 12.6 m.

Type: Ship (hazmat cat A). MMSI: 351361000.

Date/timePositionNaut miles runAvg speedWind from/ knotsBaromVisibWave heightAir tempDewpointWater temp
2018-Feb-22 04:59N 51°17' E 004°15'0 0.0
2018-Feb-22 04:29N 51°17' E 004°15'0 0.0
2018-Feb-22 03:56N 51°17' E 004°15'0 0.0
2018-Feb-22 03:26N 51°17' E 004°15'0 0.0
2018-Feb-22 02:56N 51°17' E 004°15'0 0.0
2018-Feb-22 02:26N 51°17' E 004°15'0 0.0
2018-Feb-22 01:59N 51°17' E 004°15'0 0.0
2018-Feb-22 01:20N 51°17' E 004°15'0 0.0
2018-Feb-22 00:59N 51°17' E 004°15'0 0.0
2018-Feb-22 00:29N 51°17' E 004°15'0 0.1
2018-Feb-21 23:59N 51°17' E 004°15'0 0.0
2018-Feb-21 23:26N 51°17' E 004°15'0 0.0
2018-Feb-21 22:59N 51°17' E 004°15'0 0.0
2018-Feb-21 22:29N 51°17' E 004°15'0 0.0
2018-Feb-21 21:56N 51°17' E 004°15'0 0.0
2018-Feb-21 21:26N 51°17' E 004°15'0 0.0
2018-Feb-21 20:59N 51°17' E 004°15'0 0.0
2018-Feb-21 20:26N 51°17' E 004°15'0 0.0
2018-Feb-21 19:56N 51°17' E 004°15'0 0.0
2018-Feb-21 19:02N 51°17' E 004°15'0 0.0
2018-Feb-21 18:53N 51°17' E 004°15'0 0.0
2018-Feb-21 18:29N 51°17' E 004°15'0 0.0
2018-Feb-21 17:56N 51°17' E 004°15'0 0.0
2018-Feb-21 17:20N 51°17' E 004°15'0 0.0
2018-Feb-21 16:56N 51°17' E 004°15'0 0.0
2018-Feb-21 16:26N 51°17' E 004°15'0 0.0
2018-Feb-21 15:59N 51°17' E 004°15'0 0.0
2018-Feb-21 15:24N 51°17' E 004°15'0 0.0
2018-Feb-21 15:00N 51°17' E 004°15'0 0.0
2018-Feb-21 14:30N 51°17' E 004°15'0 0.0
2018-Feb-21 14:00N 51°17' E 004°15'0 0.0
2018-Feb-21 13:30N 51°17' E 004°15'0 0.0
2018-Feb-21 12:54N 51°17' E 004°15'0 0.0
2018-Feb-21 12:30N 51°17' E 004°15'0 0.0
2018-Feb-21 12:00N 51°17' E 004°15'0 0.0
2018-Feb-21 11:30N 51°17' E 004°15'0 0.0
2018-Feb-21 11:00N 51°17' E 004°15'0 0.0
2018-Feb-21 10:24N 51°17' E 004°15'0 0.0
2018-Feb-21 10:00N 51°17' E 004°15'0 0.0
2018-Feb-21 09:30N 51°17' E 004°15'0 0.0
2018-Feb-21 09:00N 51°17' E 004°15'0 0.0
2018-Feb-21 08:30N 51°17' E 004°15'0 0.0
2018-Feb-21 08:00N 51°17' E 004°15'0 0.0
2018-Feb-21 07:30N 51°17' E 004°15'0 0.0
2018-Feb-21 07:00N 51°17' E 004°15'0 0.0
2018-Feb-21 06:30N 51°17' E 004°15'0 0.0
2018-Feb-21 06:00N 51°17' E 004°15'0 0.0
2018-Feb-21 05:30N 51°17' E 004°15'1 1.5
2018-Feb-21 05:00N 51°18' E 004°16'1 2.9
2018-Feb-21 04:30N 51°20' E 004°16'5 9.0
2018-Feb-21 04:01N 51°23' E 004°13'612.9
2018-Feb-21 03:31N 51°23' E 004°02'3 6.5
2018-Feb-21 03:00N 51°23' E 003°57'511.1
2018-Feb-21 02:30N 51°21' E 003°49'510.7
2018-Feb-21 02:00N 51°24' E 003°43'5 9.8
2018-Feb-21 01:30N 51°26' E 003°35'4 8.8
2018-Feb-21 01:00N 51°25' E 003°28'815.4
2018-Feb-21 00:30N 51°25' E 003°16'714.5
2018-Feb-21 00:00N 51°24' E 003°04'714.0
2018-Feb-20 23:31N 51°25' E 002°53'611.7
2018-Feb-20 23:01N 51°23' E 002°44'4 8.1
2018-Feb-20 22:28N 51°22' E 002°38'3 6.5
2018-Feb-20 22:00N 51°22' E 002°33'3 6.4
2018-Feb-20 21:30N 51°21' E 002°28'2 3.6
2018-Feb-20 21:01N 51°20' E 002°25'1 1.7
2018-Feb-20 20:31N 51°21' E 002°26'1 1.1
2018-Feb-20 20:00N 51°21' E 002°26'5 9.2
2018-Feb-20 19:30N 51°19' E 002°19'612.6
2018-Feb-20 19:00N 51°16' E 002°10'713.1
2018-Feb-20 18:30N 51°13' E 002°01'613.2
2018-Feb-20 18:01N 51°09' E 001°52'713.2
2018-Feb-20 17:31N 51°05' E 001°43'714.5
2018-Feb-20 17:00N 50°60' E 001°36'714.1
2018-Feb-20 16:30N 50°54' E 001°29'714.2
2018-Feb-20 15:58N 50°47' E 001°24'714.3
2018-Feb-20 15:30N 50°41' E 001°19'714.0
2018-Feb-20 15:00N 50°37' E 001°11'713.8
2018-Feb-20 14:30N 50°33' E 001°02'713.4
2018-Feb-20 14:00N 50°29' E 000°53'713.0
2018-Feb-20 13:30N 50°28' E 000°43'612.9
2018-Feb-20 13:01N 50°26' E 000°33'713.0
2018-Feb-20 12:30N 50°24' E 000°24'713.2
2018-Feb-20 12:00N 50°22' E 000°14'713.7
2018-Feb-20 11:30N 50°20' E 000°03'713.4
2018-Feb-20 11:00N 50°18' W 000°07'713.7
2018-Feb-20 10:30N 50°17' W 000°17'714.0
2018-Feb-20 10:00N 50°15' W 000°28'1114.2
2018-Feb-20 09:14N 50°12' W 000°44'313.9
2018-Feb-20 09:00N 50°11' W 000°49'714.2
2018-Feb-20 08:30N 50°10' W 000°60'714.4
2018-Feb-20 08:00N 50°08' W 001°11'714.5
2018-Feb-20 07:30N 50°06' W 001°22'714.3
2018-Feb-20 07:00N 50°04' W 001°32'713.9
2018-Feb-20 06:30N 50°02' W 001°43'713.1
2018-Feb-20 06:00N 50°00' W 001°52'612.0
2018-Feb-20 05:30N 49°59' W 002°01'611.7
2018-Feb-20 05:01N 49°57' W 002°10'611.6
2018-Feb-20 04:30N 49°55' W 002°19'611.9
2018-Feb-20 04:00N 49°54' W 002°28'612.3
2018-Feb-20 03:30N 49°52' W 002°37'612.8
2018-Feb-20 03:00N 49°50' W 002°46'712.8
2018-Feb-20 02:28N 49°47' W 002°56'613.0
2018-Feb-20 01:58N 49°44' W 003°05'613.0
2018-Feb-20 01:30N 49°41' W 003°13'712.9
2018-Feb-20 01:00N 49°38' W 003°22'712.9
2018-Feb-20 00:26N 49°35' W 003°31'1213.1
2018-Feb-19 23:30N 49°28' W 003°48'713.3
2018-Feb-19 23:00N 49°25' W 003°57'1012.9
2018-Feb-19 22:14N 49°20' W 004°10'312.8
2018-Feb-19 22:00N 49°19' W 004°14'813.1
2018-Feb-19 21:24N 49°15' W 004°24'513.1
2018-Feb-19 21:00N 49°12' W 004°31'713.3
2018-Feb-19 20:27N 49°08' W 004°41'613.0
2018-Feb-19 20:00N 49°05' W 004°49'813.3
2018-Feb-19 19:26N 49°02' W 004°59'613.3
2018-Feb-19 19:00N 48°59' W 005°06'1913.3
2018-Feb-19 17:34N 48°49' W 005°31'113.2
2018-Feb-19 17:29N 48°48' W 005°32'3613.4
2018-Feb-19 14:47N 48°17' W 006°00'413.4
2018-Feb-19 14:30N 48°14' W 006°03'2413.7
2018-Feb-19 12:45N 47°53' W 006°20'1313.6
2018-Feb-19 11:48N 47°41' W 006°29'615.1
2018-Feb-19 11:23N 47°36' W 006°33'718.0
2018-Feb-19 10:59N 47°30' W 006°38'48319.1
2018-Feb-18 09:39N 39°47' W 009°52'719.0
2018-Feb-18 09:17N 39°41' W 009°52'619.0
2018-Feb-18 08:59N 39°35' W 009°52'919.0
2018-Feb-18 08:30N 39°26' W 009°52'919.0
2018-Feb-18 08:00N 39°16' W 009°52'1019.0
2018-Feb-18 07:30N 39°07' W 009°52'1019.2
2018-Feb-18 07:00N 38°57' W 009°52'1019.3
2018-Feb-18 06:31N 38°48' W 009°51'1019.2
2018-Feb-18 06:00N 38°38' W 009°49'1019.6
2018-Feb-18 05:31N 38°31' W 009°41'1020.0
2018-Feb-18 05:00N 38°24' W 009°31'1020.5
2018-Feb-18 04:30N 38°17' W 009°22'1020.3
2018-Feb-18 04:00N 38°10' W 009°13'1019.9
2018-Feb-18 03:30N 38°03' W 009°03'1019.1
2018-Feb-18 03:00N 37°56' W 008°55'3 6.5
2018-Feb-18 02:29N 37°56' W 008°51'0 0.2
2018-Feb-18 01:59N 37°56' W 008°51'0 0.0
2018-Feb-18 01:29N 37°56' W 008°51'0 0.0
2018-Feb-18 01:00N 37°56' W 008°51'0 0.0
2018-Feb-18 00:30N 37°56' W 008°51'0 0.0
2018-Feb-18 00:00N 37°56' W 008°51'0 0.0
2018-Feb-17 23:30N 37°56' W 008°51'0 0.0
2018-Feb-17 23:00N 37°56' W 008°51'0 0.0
2018-Feb-17 22:30N 37°56' W 008°51'0 0.0
2018-Feb-17 22:00N 37°56' W 008°51'0 0.0
2018-Feb-17 21:30N 37°56' W 008°51'0 0.0
2018-Feb-17 21:00N 37°56' W 008°51'0 0.0
2018-Feb-17 20:30N 37°56' W 008°51'0 0.0
2018-Feb-17 20:00N 37°56' W 008°51'0 0.0
2018-Feb-17 19:30N 37°56' W 008°51'0 0.0
2018-Feb-17 19:00N 37°56' W 008°51'0 0.0
2018-Feb-17 18:30N 37°56' W 008°51'0 0.0
2018-Feb-17 18:00N 37°56' W 008°51'0 0.0
2018-Feb-17 17:30N 37°56' W 008°51'0 0.0
2018-Feb-17 17:00N 37°56' W 008°51'0 0.0
2018-Feb-17 16:30N 37°56' W 008°51'0 0.0
2018-Feb-17 16:00N 37°56' W 008°51'0 0.0
2018-Feb-17 15:30N 37°56' W 008°51'0 0.0
2018-Feb-17 15:00N 37°56' W 008°51'0 0.0
2018-Feb-17 14:30N 37°56' W 008°51'0 0.0
2018-Feb-17 14:00N 37°56' W 008°51'0 0.0
2018-Feb-17 13:30N 37°56' W 008°51'0 0.0
2018-Feb-17 13:00N 37°56' W 008°51'0 0.0
2018-Feb-17 12:30N 37°56' W 008°51'0 0.0
2018-Feb-17 12:00N 37°56' W 008°51'0 0.0
2018-Feb-17 11:30N 37°56' W 008°51'0 0.0
2018-Feb-17 11:00N 37°56' W 008°51'0 0.0
2018-Feb-17 10:30N 37°56' W 008°51'0 0.0
2018-Feb-17 10:00N 37°56' W 008°51'0 0.0
2018-Feb-17 09:30N 37°56' W 008°51'0 0.0
2018-Feb-17 09:00N 37°56' W 008°51'0 0.0
2018-Feb-17 08:30N 37°56' W 008°51'0 0.0
2018-Feb-17 08:00N 37°56' W 008°51'0 0.0
2018-Feb-17 07:30N 37°56' W 008°51'0 0.0
2018-Feb-17 07:00N 37°56' W 008°51'0 0.0
2018-Feb-17 06:30N 37°56' W 008°51'0 0.0
2018-Feb-17 06:00N 37°56' W 008°51'0 0.0
2018-Feb-17 05:30N 37°56' W 008°51'0 0.0
2018-Feb-17 05:00N 37°56' W 008°51'0 0.0
2018-Feb-17 04:30N 37°56' W 008°51'0 0.0
2018-Feb-17 04:00N 37°56' W 008°51'0 0.0
2018-Feb-17 03:30N 37°56' W 008°51'0 0.0
2018-Feb-17 03:00N 37°56' W 008°51'0 0.0
2018-Feb-17 02:30N 37°56' W 008°51'0 0.0
2018-Feb-17 02:00N 37°56' W 008°51'0 0.0
2018-Feb-17 01:30N 37°56' W 008°51'0 0.0
2018-Feb-17 01:00N 37°56' W 008°51'0 0.1
2018-Feb-17 00:30N 37°56' W 008°51'1 1.2
2018-Feb-17 00:00N 37°55' W 008°50'1 1.0
2018-Feb-16 23:30N 37°55' W 008°50'2 4.1
2018-Feb-16 23:00N 37°53' W 008°50'0 0.9
2018-Feb-16 22:30N 37°52' W 008°51'1 2.4
2018-Feb-16 22:00N 37°52' W 008°52'4 8.1
2018-Feb-16 21:30N 37°51' W 008°57'1 2.7
2018-Feb-16 21:00N 37°52' W 008°59'1 1.4
2018-Feb-16 20:31N 37°53' W 008°59'1 1.5
2018-Feb-16 20:00N 37°53' W 008°58'2 4.1
2018-Feb-16 19:30N 37°54' W 008°56'1 2.4
2018-Feb-16 19:00N 37°53' W 008°54'1 1.4
2018-Feb-16 18:30N 37°53' W 008°55'1 1.2
2018-Feb-16 18:00N 37°54' W 008°55'1 1.2
2018-Feb-16 17:31N 37°54' W 008°56'1 1.2
2018-Feb-16 17:00N 37°55' W 008°56'1 1.0
2018-Feb-16 16:30N 37°55' W 008°57'1 1.0
2018-Feb-16 16:00N 37°55' W 008°57'1 1.1
2018-Feb-16 15:31N 37°55' W 008°58'2 4.0
2018-Feb-16 15:00N 37°54' W 009°00'3 6.3
2018-Feb-16 14:30N 37°51' W 009°03'3 6.1
2018-Feb-16 14:00N 37°48' W 009°04'3 6.2
2018-Feb-16 13:30N 37°45' W 009°05'3 6.1
2018-Feb-16 13:01N 37°42' W 009°06'3 5.7
2018-Feb-16 12:30N 37°40' W 009°07'2 3.9
2018-Feb-16 12:00N 37°38' W 009°07'612.1
2018-Feb-16 11:31N 37°32' W 009°09'714.8
2018-Feb-16 11:00N 37°25' W 009°12'714.8
2018-Feb-16 10:30N 37°18' W 009°15'3412.6
2018-Feb-16 07:50N 36°45' W 009°07'413.3
2018-Feb-16 07:30N 36°43' W 009°02'713.0
2018-Feb-16 06:59N 36°41' W 008°54'3212.9
2018-Feb-16 04:31N 36°31' W 008°16'113.1
2018-Feb-16 04:28N 36°31' W 008°16'713.2
2018-Feb-16 03:58N 36°29' W 008°08'12613.4
2018-Feb-15 18:34N 35°58' W 005°36'112.6
2018-Feb-15 18:28N 35°58' W 005°35'612.5
2018-Feb-15 18:00N 35°60' W 005°28'612.8
2018-Feb-15 17:30N 36°01' W 005°20'612.2
2018-Feb-15 17:00N 36°02' W 005°13'91318.4
2018-Feb-13 15:26N 35°59' E 013°36'818.7
2018-Feb-13 15:00N 35°53' E 013°43'2118.3
2018-Feb-13 13:51N 35°40' E 014°03'718.6
2018-Feb-13 13:30N 35°36' E 014°09'1118.5
2018-Feb-13 12:55N 35°31' E 014°21'919.0
2018-Feb-13 12:28N 35°28' E 014°31'  
Track history (hours):
 
Tides and Currents Weather Stations Pressure Air Temp Water Temp Dewpoint Dewpoint Depression Visibility Wind Speed Wind Dir Waves Ship Positions

MSC Kalina

Last reported at 2018-Feb-22 04:59 UTC. Time now 2018-Feb-22 05:29 UTC.
Position N 51°17' E 004°15'.

Length 366 m; draft 12.6 m.

Type: Ship (hazmat cat A). MMSI: 351361000.

Date/timePositionNaut miles runAvg speedWind from/ knotsBaromVisibWave heightAir tempDewpointWater temp
2018-Feb-22 04:59N 51°17' E 004°15'0 0.0
2018-Feb-22 04:29N 51°17' E 004°15'0 0.0
2018-Feb-22 03:56N 51°17' E 004°15'0 0.0
2018-Feb-22 03:26N 51°17' E 004°15'0 0.0
2018-Feb-22 02:56N 51°17' E 004°15'0 0.0
2018-Feb-22 02:26N 51°17' E 004°15'0 0.0
2018-Feb-22 01:59N 51°17' E 004°15'0 0.0
2018-Feb-22 01:20N 51°17' E 004°15'0 0.0
2018-Feb-22 00:59N 51°17' E 004°15'0 0.0
2018-Feb-22 00:29N 51°17' E 004°15'0 0.1
2018-Feb-21 23:59N 51°17' E 004°15'0 0.0
2018-Feb-21 23:26N 51°17' E 004°15'0 0.0
2018-Feb-21 22:59N 51°17' E 004°15'0 0.0
2018-Feb-21 22:29N 51°17' E 004°15'0 0.0
2018-Feb-21 21:56N 51°17' E 004°15'0 0.0
2018-Feb-21 21:26N 51°17' E 004°15'0 0.0
2018-Feb-21 20:59N 51°17' E 004°15'0 0.0
2018-Feb-21 20:26N 51°17' E 004°15'0 0.0
2018-Feb-21 19:56N 51°17' E 004°15'0 0.0
2018-Feb-21 19:02N 51°17' E 004°15'0 0.0
2018-Feb-21 18:53N 51°17' E 004°15'0 0.0
2018-Feb-21 18:29N 51°17' E 004°15'0 0.0
2018-Feb-21 17:56N 51°17' E 004°15'0 0.0
2018-Feb-21 17:20N 51°17' E 004°15'0 0.0
2018-Feb-21 16:56N 51°17' E 004°15'0 0.0
2018-Feb-21 16:26N 51°17' E 004°15'0 0.0
2018-Feb-21 15:59N 51°17' E 004°15'0 0.0
2018-Feb-21 15:24N 51°17' E 004°15'0 0.0
2018-Feb-21 15:00N 51°17' E 004°15'0 0.0
2018-Feb-21 14:30N 51°17' E 004°15'0 0.0
2018-Feb-21 14:00N 51°17' E 004°15'0 0.0
2018-Feb-21 13:30N 51°17' E 004°15'0 0.0
2018-Feb-21 12:54N 51°17' E 004°15'0 0.0
2018-Feb-21 12:30N 51°17' E 004°15'0 0.0
2018-Feb-21 12:00N 51°17' E 004°15'0 0.0
2018-Feb-21 11:30N 51°17' E 004°15'0 0.0
2018-Feb-21 11:00N 51°17' E 004°15'0 0.0
2018-Feb-21 10:24N 51°17' E 004°15'0 0.0
2018-Feb-21 10:00N 51°17' E 004°15'0 0.0
2018-Feb-21 09:30N 51°17' E 004°15'0 0.0
2018-Feb-21 09:00N 51°17' E 004°15'0 0.0
2018-Feb-21 08:30N 51°17' E 004°15'0 0.0
2018-Feb-21 08:00N 51°17' E 004°15'0 0.0
2018-Feb-21 07:30N 51°17' E 004°15'0 0.0
2018-Feb-21 07:00N 51°17' E 004°15'0 0.0
2018-Feb-21 06:30N 51°17' E 004°15'0 0.0
2018-Feb-21 06:00N 51°17' E 004°15'0 0.0
2018-Feb-21 05:30N 51°17' E 004°15'1 1.5
2018-Feb-21 05:00N 51°18' E 004°16'1 2.9
2018-Feb-21 04:30N 51°20' E 004°16'5 9.0
2018-Feb-21 04:01N 51°23' E 004°13'612.9
2018-Feb-21 03:31N 51°23' E 004°02'3 6.5
2018-Feb-21 03:00N 51°23' E 003°57'511.1
2018-Feb-21 02:30N 51°21' E 003°49'510.7
2018-Feb-21 02:00N 51°24' E 003°43'5 9.8
2018-Feb-21 01:30N 51°26' E 003°35'4 8.8
2018-Feb-21 01:00N 51°25' E 003°28'815.4
2018-Feb-21 00:30N 51°25' E 003°16'714.5
2018-Feb-21 00:00N 51°24' E 003°04'714.0
2018-Feb-20 23:31N 51°25' E 002°53'611.7
2018-Feb-20 23:01N 51°23' E 002°44'4 8.1
2018-Feb-20 22:28N 51°22' E 002°38'3 6.5
2018-Feb-20 22:00N 51°22' E 002°33'3 6.4
2018-Feb-20 21:30N 51°21' E 002°28'2 3.6
2018-Feb-20 21:01N 51°20' E 002°25'1 1.7
2018-Feb-20 20:31N 51°21' E 002°26'1 1.1
2018-Feb-20 20:00N 51°21' E 002°26'5 9.2
2018-Feb-20 19:30N 51°19' E 002°19'612.6
2018-Feb-20 19:00N 51°16' E 002°10'713.1
2018-Feb-20 18:30N 51°13' E 002°01'613.2
2018-Feb-20 18:01N 51°09' E 001°52'713.2
2018-Feb-20 17:31N 51°05' E 001°43'714.5
2018-Feb-20 17:00N 50°60' E 001°36'714.1
2018-Feb-20 16:30N 50°54' E 001°29'714.2
2018-Feb-20 15:58N 50°47' E 001°24'714.3
2018-Feb-20 15:30N 50°41' E 001°19'714.0
2018-Feb-20 15:00N 50°37' E 001°11'713.8
2018-Feb-20 14:30N 50°33' E 001°02'713.4
2018-Feb-20 14:00N 50°29' E 000°53'713.0
2018-Feb-20 13:30N 50°28' E 000°43'612.9
2018-Feb-20 13:01N 50°26' E 000°33'713.0
2018-Feb-20 12:30N 50°24' E 000°24'713.2
2018-Feb-20 12:00N 50°22' E 000°14'713.7
2018-Feb-20 11:30N 50°20' E 000°03'713.4
2018-Feb-20 11:00N 50°18' W 000°07'713.7
2018-Feb-20 10:30N 50°17' W 000°17'714.0
2018-Feb-20 10:00N 50°15' W 000°28'1114.2
2018-Feb-20 09:14N 50°12' W 000°44'313.9
2018-Feb-20 09:00N 50°11' W 000°49'714.2
2018-Feb-20 08:30N 50°10' W 000°60'714.4
2018-Feb-20 08:00N 50°08' W 001°11'714.5
2018-Feb-20 07:30N 50°06' W 001°22'714.3
2018-Feb-20 07:00N 50°04' W 001°32'713.9
2018-Feb-20 06:30N 50°02' W 001°43'713.1
2018-Feb-20 06:00N 50°00' W 001°52'612.0
2018-Feb-20 05:30N 49°59' W 002°01'611.7
2018-Feb-20 05:01N 49°57' W 002°10'611.6
2018-Feb-20 04:30N 49°55' W 002°19'611.9
2018-Feb-20 04:00N 49°54' W 002°28'612.3
2018-Feb-20 03:30N 49°52' W 002°37'612.8
2018-Feb-20 03:00N 49°50' W 002°46'712.8
2018-Feb-20 02:28N 49°47' W 002°56'613.0
2018-Feb-20 01:58N 49°44' W 003°05'613.0
2018-Feb-20 01:30N 49°41' W 003°13'712.9
2018-Feb-20 01:00N 49°38' W 003°22'712.9
2018-Feb-20 00:26N 49°35' W 003°31'1213.1
2018-Feb-19 23:30N 49°28' W 003°48'713.3
2018-Feb-19 23:00N 49°25' W 003°57'1012.9
2018-Feb-19 22:14N 49°20' W 004°10'312.8
2018-Feb-19 22:00N 49°19' W 004°14'813.1
2018-Feb-19 21:24N 49°15' W 004°24'513.1
2018-Feb-19 21:00N 49°12' W 004°31'713.3
2018-Feb-19 20:27N 49°08' W 004°41'613.0
2018-Feb-19 20:00N 49°05' W 004°49'813.3
2018-Feb-19 19:26N 49°02' W 004°59'613.3
2018-Feb-19 19:00N 48°59' W 005°06'1913.3
2018-Feb-19 17:34N 48°49' W 005°31'113.2
2018-Feb-19 17:29N 48°48' W 005°32'3613.4
2018-Feb-19 14:47N 48°17' W 006°00'413.4
2018-Feb-19 14:30N 48°14' W 006°03'2413.7
2018-Feb-19 12:45N 47°53' W 006°20'1313.6
2018-Feb-19 11:48N 47°41' W 006°29'615.1
2018-Feb-19 11:23N 47°36' W 006°33'718.0
2018-Feb-19 10:59N 47°30' W 006°38'48319.1
2018-Feb-18 09:39N 39°47' W 009°52'719.0
2018-Feb-18 09:17N 39°41' W 009°52'619.0
2018-Feb-18 08:59N 39°35' W 009°52'919.0
2018-Feb-18 08:30N 39°26' W 009°52'919.0
2018-Feb-18 08:00N 39°16' W 009°52'1019.0
2018-Feb-18 07:30N 39°07' W 009°52'1019.2
2018-Feb-18 07:00N 38°57' W 009°52'1019.3
2018-Feb-18 06:31N 38°48' W 009°51'1019.2
2018-Feb-18 06:00N 38°38' W 009°49'1019.6
2018-Feb-18 05:31N 38°31' W 009°41'1020.0
2018-Feb-18 05:00N 38°24' W 009°31'1020.5
2018-Feb-18 04:30N 38°17' W 009°22'1020.3
2018-Feb-18 04:00N 38°10' W 009°13'1019.9
2018-Feb-18 03:30N 38°03' W 009°03'1019.1
2018-Feb-18 03:00N 37°56' W 008°55'3 6.5
2018-Feb-18 02:29N 37°56' W 008°51'0 0.2
2018-Feb-18 01:59N 37°56' W 008°51'0 0.0
2018-Feb-18 01:29N 37°56' W 008°51'0 0.0
2018-Feb-18 01:00N 37°56' W 008°51'0 0.0
2018-Feb-18 00:30N 37°56' W 008°51'0 0.0
2018-Feb-18 00:00N 37°56' W 008°51'0 0.0
2018-Feb-17 23:30N 37°56' W 008°51'0 0.0
2018-Feb-17 23:00N 37°56' W 008°51'0 0.0
2018-Feb-17 22:30N 37°56' W 008°51'0 0.0
2018-Feb-17 22:00N 37°56' W 008°51'0 0.0
2018-Feb-17 21:30N 37°56' W 008°51'0 0.0
2018-Feb-17 21:00N 37°56' W 008°51'0 0.0
2018-Feb-17 20:30N 37°56' W 008°51'0 0.0
2018-Feb-17 20:00N 37°56' W 008°51'0 0.0
2018-Feb-17 19:30N 37°56' W 008°51'0 0.0
2018-Feb-17 19:00N 37°56' W 008°51'0 0.0
2018-Feb-17 18:30N 37°56' W 008°51'0 0.0
2018-Feb-17 18:00N 37°56' W 008°51'0 0.0
2018-Feb-17 17:30N 37°56' W 008°51'0 0.0
2018-Feb-17 17:00N 37°56' W 008°51'0 0.0
2018-Feb-17 16:30N 37°56' W 008°51'0 0.0
2018-Feb-17 16:00N 37°56' W 008°51'0 0.0
2018-Feb-17 15:30N 37°56' W 008°51'0 0.0
2018-Feb-17 15:00N 37°56' W 008°51'0 0.0
2018-Feb-17 14:30N 37°56' W 008°51'0 0.0
2018-Feb-17 14:00N 37°56' W 008°51'0 0.0
2018-Feb-17 13:30N 37°56' W 008°51'0 0.0
2018-Feb-17 13:00N 37°56' W 008°51'0 0.0
2018-Feb-17 12:30N 37°56' W 008°51'0 0.0
2018-Feb-17 12:00N 37°56' W 008°51'0 0.0
2018-Feb-17 11:30N 37°56' W 008°51'0 0.0
2018-Feb-17 11:00N 37°56' W 008°51'0 0.0
2018-Feb-17 10:30N 37°56' W 008°51'0 0.0
2018-Feb-17 10:00N 37°56' W 008°51'0 0.0
2018-Feb-17 09:30N 37°56' W 008°51'0 0.0
2018-Feb-17 09:00N 37°56' W 008°51'0 0.0
2018-Feb-17 08:30N 37°56' W 008°51'0 0.0
2018-Feb-17 08:00N 37°56' W 008°51'0 0.0
2018-Feb-17 07:30N 37°56' W 008°51'0 0.0
2018-Feb-17 07:00N 37°56' W 008°51'0 0.0
2018-Feb-17 06:30N 37°56' W 008°51'0 0.0
2018-Feb-17 06:00N 37°56' W 008°51'0 0.0
2018-Feb-17 05:30N 37°56' W 008°51'0 0.0
2018-Feb-17 05:00N 37°56' W 008°51'0 0.0
2018-Feb-17 04:30N 37°56' W 008°51'0 0.0
2018-Feb-17 04:00N 37°56' W 008°51'0 0.0
2018-Feb-17 03:30N 37°56' W 008°51'0 0.0
2018-Feb-17 03:00N 37°56' W 008°51'0 0.0
2018-Feb-17 02:30N 37°56' W 008°51'0 0.0
2018-Feb-17 02:00N 37°56' W 008°51'0 0.0
2018-Feb-17 01:30N 37°56' W 008°51'0 0.0
2018-Feb-17 01:00N 37°56' W 008°51'0 0.1
2018-Feb-17 00:30N 37°56' W 008°51'1 1.2
2018-Feb-17 00:00N 37°55' W 008°50'1 1.0
2018-Feb-16 23:30N 37°55' W 008°50'2 4.1
2018-Feb-16 23:00N 37°53' W 008°50'0 0.9
2018-Feb-16 22:30N 37°52' W 008°51'1 2.4
2018-Feb-16 22:00N 37°52' W 008°52'4 8.1
2018-Feb-16 21:30N 37°51' W 008°57'1 2.7
2018-Feb-16 21:00N 37°52' W 008°59'1 1.4
2018-Feb-16 20:31N 37°53' W 008°59'1 1.5
2018-Feb-16 20:00N 37°53' W 008°58'2 4.1
2018-Feb-16 19:30N 37°54' W 008°56'1 2.4
2018-Feb-16 19:00N 37°53' W 008°54'1 1.4
2018-Feb-16 18:30N 37°53' W 008°55'1 1.2
2018-Feb-16 18:00N 37°54' W 008°55'1 1.2
2018-Feb-16 17:31N 37°54' W 008°56'1 1.2
2018-Feb-16 17:00N 37°55' W 008°56'1 1.0
2018-Feb-16 16:30N 37°55' W 008°57'1 1.0
2018-Feb-16 16:00N 37°55' W 008°57'1 1.1
2018-Feb-16 15:31N 37°55' W 008°58'2 4.0
2018-Feb-16 15:00N 37°54' W 009°00'3 6.3
2018-Feb-16 14:30N 37°51' W 009°03'3 6.1
2018-Feb-16 14:00N 37°48' W 009°04'3 6.2
2018-Feb-16 13:30N 37°45' W 009°05'3 6.1
2018-Feb-16 13:01N 37°42' W 009°06'3 5.7
2018-Feb-16 12:30N 37°40' W 009°07'2 3.9
2018-Feb-16 12:00N 37°38' W 009°07'612.1
2018-Feb-16 11:31N 37°32' W 009°09'714.8
2018-Feb-16 11:00N 37°25' W 009°12'714.8
2018-Feb-16 10:30N 37°18' W 009°15'3412.6
2018-Feb-16 07:50N 36°45' W 009°07'413.3
2018-Feb-16 07:30N 36°43' W 009°02'713.0
2018-Feb-16 06:59N 36°41' W 008°54'3212.9
2018-Feb-16 04:31N 36°31' W 008°16'113.1
2018-Feb-16 04:28N 36°31' W 008°16'713.2
2018-Feb-16 03:58N 36°29' W 008°08'12613.4
2018-Feb-15 18:34N 35°58' W 005°36'112.6
2018-Feb-15 18:28N 35°58' W 005°35'612.5
2018-Feb-15 18:00N 35°60' W 005°28'612.8
2018-Feb-15 17:30N 36°01' W 005°20'612.2
2018-Feb-15 17:00N 36°02' W 005°13'91318.4
2018-Feb-13 15:26N 35°59' E 013°36'818.7
2018-Feb-13 15:00N 35°53' E 013°43'2118.3
2018-Feb-13 13:51N 35°40' E 014°03'718.6
2018-Feb-13 13:30N 35°36' E 014°09'1118.5
2018-Feb-13 12:55N 35°31' E 014°21'919.0
2018-Feb-13 12:28N 35°28' E 014°31'  

Dump ship's entire track history